Keyes, CA (95328)

12:52 AM PST on November 23, 2014 (GMT -0800)
Central Ceres | Change Station
CLOSE
Current Station
Personal Weather Station
Location: Ceres, CA
Elevation: 92 ft
Nearby Weather Stations
Active Advisory: Dense Fog Advisory

Elev 92 ft 37.60 °N, 120.96 °W | Updated 5 minutes ago

Fog
Fog
53.1 °F
Feels Like 53.1 °F
N
7.0
Wind Variable Wind from West
Gusts 12.0 mph

Today
High -- | Low -- °F
--% Chance of Precip.
Yesterday
High -- | Low -- °F
Precip. -- in
6:51 AM 4:48 PM
New Moon, 1% visible
Pressure 30.22 in
Visibility 0.2 miles
Clouds
Dew Point 52 °F
Humidity 95%
Rainfall 0.00 in
Snow Depth Not available.
UV Not available.
Pollen .40 out of 12
Air Quality Not available.
Flu Activity Not available.
SPECI KMOD 230826Z AUTO 31009KT 1/4SM FG VV002 12/11 A3022 RMK AO2 T01170106 $

More Conditions Fewer Conditions

Pressure 30.22 in
Visibility 0.2 miles
Clouds
Dew Point 52 °F
Humidity 95%
Rainfall 0.00 in
Snow Depth Not available.
UV Not available.
Pollen .40 out of 12
Air Quality Not available.
Flu Activity Not available.
SPECI KMOD 230826Z AUTO 31009KT 1/4SM FG VV002 12/11 A3022 RMK AO2 T01170106 $

More Conditions Fewer Conditions

10-Day Weather Forecast

Almanac

Astronomy

Nov. 23, 2014 Rise Set
Actual Time
Civil Twilight
Nautical Twilight
Astronomical Twilight
Moon
Length of Visible Light
Length of Day
Tomorrow will be .
, % of the Moon is Illuminated

Today's Extremes

State Highs State Lows

Community

WunderPhotos

Upload Photos

1,773,024 photos uploaded!

WunderBlogs® & News

Nearby

Air Quality

  Air Quality AQ Index Pollutant
Not available.

Snow Depth

Station Depth Elevation

Earthquake Activity

City Distance Mag. Time & Date
Minimum magnitude displayed is 2.5.

Coastal Water Temperatures

Place Temperature

Nearby Weather Stations